YMUR weather

Murwillumbah Airport
New South Wales, Australia

Public forecast

Using degrees Celsius for public forecast. Weather courtesy of forecast.io.

METAR (pilot weather report)

Closest report is Gold Coast Airport, 11.2 nm (20.7 km) NNE. Retrieved 2019/02/18 05:30 UTC (20 minutes ago):

YBCG 180530Z AUTO 11014KT 9999 // NCD 28/18 Q1009 RF00.0/000.0

TAF (pilot weather forecast)

Forecast is more than 12 hours old.

Closest forecast is Gold Coast Airport, 11.2 nm (20.7 km) NNE. Retrieved 2019/02/17 00:00 UTC (1 day ago):

TAF YBCG 172311Z 1800/1824 14010KT 9999 SCT040 FM180100 11014KT 9999 FEW045 FM180900 11008KT 9999 SCT030 FM181200 20005KT 9999 SCT030 FM182300 14010KT 9999 SCT040